Ocean Beach, California
Current Conditions -  °F | °C
As of 2:52 AM on Wednesday 22 Oct 2014 (Local Time) from KNZY Reporting Station
Broken Clouds Broken Clouds  
Wind Chill: 66°   Ceiling: 1200
Heat Index: 66°   Visibility: 8mi
Dew Point: 62°   Wind: 6mph
Humidity: 87%   Direction: 80°E
Pressure: 29.87"   Gusts: NA
Location:  32.741°N, 117.243°W
Report Text: KNZY 220952Z 08005KT 8SM BKN012 BKN220 19/17 A2987 RMK AO2 SLP114 T01890167 $
Loading
Personal Weather Stations






























Interactive Weather Map
Tropical Storm Tracking
New forecast layout! Learn more

10-Day Weather Forecast

Advertisements
Track Severe Weather on mobile